createdAt,value
2022-12-08T00:01:41.251Z,74.41
2022-12-08T00:04:10.500Z,74.12
2022-12-08T00:07:00.604Z,74.27
2022-12-08T00:09:38.733Z,74.47
2022-12-08T00:12:10.739Z,74.52
2022-12-08T00:14:44.326Z,74.58
2022-12-08T00:17:14.495Z,74.76
2022-12-08T00:19:43.663Z,74.80
2022-12-08T00:22:13.442Z,74.87
2022-12-08T00:24:44.982Z,75.00
2022-12-08T00:27:15.711Z,75.18
2022-12-08T00:29:46.081Z,75.26
2022-12-08T00:32:14.703Z,75.29
2022-12-08T00:34:42.547Z,75.30
2022-12-08T00:37:10.501Z,75.30
2022-12-08T00:39:38.488Z,75.36
2022-12-08T00:42:12.454Z,75.34
2022-12-08T00:44:41.951Z,75.39
2022-12-08T00:47:10.212Z,75.31
2022-12-08T00:49:38.177Z,75.11
2022-12-08T00:52:06.264Z,75.15
2022-12-08T00:54:34.091Z,75.18
2022-12-08T00:57:02.194Z,75.11
2022-12-08T00:59:30.442Z,75.05
2022-12-08T01:01:58.316Z,75.27
2022-12-08T01:04:26.338Z,75.21
2022-12-08T01:06:54.466Z,75.21
2022-12-08T01:09:22.299Z,75.41
2022-12-08T01:11:50.821Z,75.41
2022-12-08T01:14:19.014Z,75.57
2022-12-08T01:16:46.989Z,75.51
2022-12-08T01:19:17.042Z,75.34
2022-12-08T01:21:46.574Z,75.14
2022-12-08T01:24:19.693Z,75.23
2022-12-08T01:26:49.895Z,75.19
2022-12-08T01:29:18.118Z,75.23
2022-12-08T01:31:46.446Z,75.16
2022-12-08T01:34:14.842Z,75.32
2022-12-08T01:36:44.499Z,75.36
2022-12-08T01:39:18.068Z,75.30
2022-12-08T01:41:47.887Z,75.15
2022-12-08T01:44:15.692Z,75.01
2022-12-08T01:46:46.000Z,75.00
2022-12-08T01:49:18.917Z,75.09
2022-12-08T01:52:10.091Z,75.11
2022-12-08T01:54:49.689Z,75.13
2022-12-08T01:57:24.370Z,74.92
2022-12-08T02:00:02.876Z,74.91
2022-12-08T02:02:46.762Z,75.00
2022-12-08T02:05:16.301Z,75.00
2022-12-08T02:07:44.920Z,74.95
2022-12-08T02:10:16.729Z,75.01
2022-12-08T02:12:45.128Z,74.84
2022-12-08T02:15:14.431Z,74.73
2022-12-08T02:18:09.696Z,74.71
2022-12-08T02:20:46.229Z,74.82
2022-12-08T02:23:25.604Z,74.89
2022-12-08T02:26:15.267Z,74.89
2022-12-08T02:29:04.893Z,74.87
2022-12-08T02:31:54.289Z,74.89
2022-12-08T02:34:28.372Z,74.81
2022-12-08T02:37:01.744Z,74.80
2022-12-08T02:39:40.227Z,74.78
2022-12-08T02:42:22.685Z,74.82
2022-12-08T02:45:16.897Z,74.88
2022-12-08T02:47:45.220Z,74.95
2022-12-08T02:50:13.251Z,74.95
2022-12-08T02:52:48.273Z,75.02
2022-12-08T02:55:40.037Z,74.84
2022-12-08T02:58:46.551Z,74.66
2022-12-08T03:01:48.975Z,74.77
2022-12-08T03:04:28.547Z,74.90
2022-12-08T03:07:15.351Z,74.93
2022-12-08T03:09:51.392Z,74.65
2022-12-08T03:12:30.988Z,74.81
2022-12-08T03:15:11.565Z,74.91
2022-12-08T03:17:43.544Z,74.99
2022-12-08T03:20:17.452Z,75.52
2022-12-08T03:22:47.203Z,76.72
2022-12-08T03:25:17.164Z,74.04
2022-12-08T03:27:45.234Z,72.99
2022-12-08T03:30:13.443Z,73.12
2022-12-08T03:32:50.335Z,73.36
2022-12-08T03:35:25.386Z,73.29
2022-12-08T03:38:04.674Z,75.25
2022-12-08T03:40:33.035Z,74.19
2022-12-08T03:43:00.942Z,71.30
2022-12-08T03:45:29.184Z,70.92
2022-12-08T03:47:58.362Z,71.08
2022-12-08T03:50:26.411Z,71.46
2022-12-08T03:52:54.319Z,72.04
2022-12-08T03:55:22.245Z,74.70
2022-12-08T03:57:50.306Z,73.58
2022-12-08T04:00:18.443Z,72.48
2022-12-08T04:02:46.629Z,70.88
2022-12-08T04:05:14.594Z,70.57
2022-12-08T04:07:42.639Z,70.68
2022-12-08T04:10:10.974Z,72.30
2022-12-08T04:12:38.932Z,68.88
2022-12-08T04:15:07.480Z,68.26
2022-12-08T04:17:35.426Z,65.80
2022-12-08T04:20:03.992Z,65.18
2022-12-08T04:22:32.117Z,64.47
2022-12-08T04:25:00.363Z,62.50
2022-12-08T04:27:28.447Z,61.86
2022-12-08T04:29:56.443Z,61.92
2022-12-08T04:32:24.484Z,61.85
2022-12-08T04:34:52.383Z,61.97
2022-12-08T04:37:20.309Z,61.95
2022-12-08T04:39:48.222Z,61.81
2022-12-08T04:42:16.743Z,61.34
2022-12-08T04:44:44.980Z,61.02
2022-12-08T04:47:13.344Z,60.78
2022-12-08T04:49:41.378Z,60.38
2022-12-08T04:52:09.563Z,58.54
2022-12-08T04:54:37.555Z,58.37
2022-12-08T04:57:05.449Z,59.95
2022-12-08T04:59:33.407Z,63.79
2022-12-08T05:02:01.604Z,67.32
2022-12-08T05:04:29.839Z,66.57
2022-12-08T05:06:58.075Z,64.47
2022-12-08T05:09:26.199Z,63.49
2022-12-08T05:11:54.151Z,63.59
2022-12-08T05:14:22.233Z,63.72
2022-12-08T05:16:50.385Z,63.40
2022-12-08T05:19:18.474Z,63.56
2022-12-08T05:21:46.562Z,61.89
2022-12-08T05:24:14.600Z,61.69
2022-12-08T05:26:42.468Z,61.10
2022-12-08T05:29:10.593Z,62.00
2022-12-08T05:31:38.649Z,61.69
2022-12-08T05:34:06.572Z,61.89
2022-12-08T05:36:34.865Z,61.60
2022-12-08T05:39:03.556Z,62.07
2022-12-08T05:41:31.427Z,62.07
2022-12-08T05:43:59.390Z,62.47
2022-12-08T05:46:28.581Z,62.90
2022-12-08T05:48:56.451Z,63.48
2022-12-08T05:51:24.712Z,63.76
2022-12-08T05:53:53.132Z,63.72
2022-12-08T05:56:22.050Z,64.12
2022-12-08T05:58:50.452Z,64.92
2022-12-08T06:01:26.039Z,65.24
2022-12-08T06:03:55.495Z,67.06
2022-12-08T06:06:23.578Z,66.09
2022-12-08T06:08:51.828Z,65.07
2022-12-08T06:11:25.662Z,65.11
2022-12-08T06:13:54.631Z,65.42
2022-12-08T06:16:24.434Z,65.74
2022-12-08T06:18:52.746Z,65.59
2022-12-08T06:21:20.936Z,66.15
2022-12-08T06:23:50.772Z,66.45
2022-12-08T06:26:20.283Z,66.69
2022-12-08T06:28:49.818Z,66.69
2022-12-08T06:31:23.653Z,67.12
2022-12-08T06:33:52.324Z,67.54
2022-12-08T06:36:23.570Z,67.98
2022-12-08T06:38:52.163Z,68.14
2022-12-08T06:41:20.402Z,67.96
2022-12-08T06:43:48.775Z,68.04
2022-12-08T06:46:19.916Z,68.30
2022-12-08T06:48:48.222Z,68.38
2022-12-08T06:51:19.599Z,68.76
2022-12-08T06:53:47.843Z,68.91
2022-12-08T06:56:16.497Z,69.19
2022-12-08T06:58:50.435Z,69.37
2022-12-08T07:01:20.648Z,69.61
2022-12-08T07:03:48.737Z,69.58
2022-12-08T07:06:21.757Z,69.82
2022-12-08T07:08:50.229Z,69.95
2022-12-08T07:11:21.871Z,70.00
2022-12-08T07:13:51.013Z,70.24
2022-12-08T07:16:19.129Z,70.39
2022-12-08T07:18:47.350Z,70.48
2022-12-08T07:21:16.817Z,70.65
2022-12-08T07:23:55.789Z,71.27
2022-12-08T07:26:27.051Z,71.57
2022-12-08T07:28:55.236Z,71.69
2022-12-08T07:31:25.849Z,71.47
2022-12-08T07:33:55.295Z,71.61
2022-12-08T07:36:24.796Z,71.92
2022-12-08T07:38:53.892Z,72.01
2022-12-08T07:41:24.966Z,72.06
2022-12-08T07:43:54.060Z,72.27
2022-12-08T07:46:23.866Z,72.28
2022-12-08T07:48:57.321Z,72.13
2022-12-08T07:51:25.395Z,72.23
2022-12-08T07:53:54.416Z,71.15
2022-12-08T07:56:23.464Z,69.90
2022-12-08T07:58:51.615Z,70.10
2022-12-08T08:01:31.600Z,68.00
2022-12-08T08:04:02.130Z,66.99
2022-12-08T08:06:31.483Z,66.82
2022-12-08T08:08:59.997Z,66.98
2022-12-08T08:11:28.319Z,67.29
2022-12-08T08:13:57.638Z,67.04
2022-12-08T08:16:25.853Z,66.97
2022-12-08T08:18:54.283Z,67.00
2022-12-08T08:21:45.064Z,67.26
2022-12-08T08:24:10.592Z,67.30
2022-12-08T08:26:38.580Z,67.75
2022-12-08T08:29:06.421Z,67.86
2022-12-08T08:31:34.485Z,68.32
2022-12-08T08:34:06.486Z,68.47
2022-12-08T08:36:34.585Z,68.93
2022-12-08T08:39:03.784Z,69.05
2022-12-08T08:41:31.814Z,69.30
2022-12-08T08:43:59.612Z,69.10
2022-12-08T08:46:27.852Z,69.28
2022-12-08T08:48:56.026Z,68.82
2022-12-08T08:51:24.498Z,69.02
2022-12-08T08:53:52.598Z,69.39
2022-12-08T08:56:20.572Z,69.41
2022-12-08T08:58:49.657Z,70.06
2022-12-08T09:01:23.927Z,71.07
2022-12-08T09:03:52.689Z,70.25
2022-12-08T09:06:20.725Z,70.69
2022-12-08T09:08:49.256Z,70.60
2022-12-08T09:11:18.776Z,70.70
2022-12-08T09:13:51.555Z,71.02
2022-12-08T09:16:20.107Z,71.54
2022-12-08T09:18:49.656Z,71.52
2022-12-08T09:21:23.087Z,71.39
2022-12-08T09:23:57.397Z,71.36
2022-12-08T09:26:27.344Z,71.58
2022-12-08T09:28:56.964Z,71.76
2022-12-08T09:31:25.243Z,71.37
2022-12-08T09:33:53.292Z,71.71
2022-12-08T09:36:21.811Z,72.28
2022-12-08T09:38:51.132Z,72.13
2022-12-08T09:41:40.375Z,72.60
2022-12-08T09:44:23.649Z,72.38
2022-12-08T09:46:53.102Z,72.52
2022-12-08T09:49:26.837Z,72.51
2022-12-08T09:51:55.131Z,72.65
2022-12-08T09:54:30.656Z,72.98
2022-12-08T09:57:03.129Z,73.15
2022-12-08T09:59:34.569Z,72.91
2022-12-08T10:02:14.379Z,72.84
2022-12-08T10:04:42.523Z,72.94
2022-12-08T10:07:35.968Z,72.93
2022-12-08T10:10:13.168Z,72.95
2022-12-08T10:12:52.045Z,73.22
2022-12-08T10:15:41.882Z,73.50
2022-12-08T10:18:27.476Z,73.82
2022-12-08T10:21:05.624Z,73.99
2022-12-08T10:23:36.767Z,74.29
2022-12-08T10:26:08.158Z,74.58
2022-12-08T10:28:40.060Z,74.68
2022-12-08T10:31:16.632Z,74.66
2022-12-08T10:33:45.472Z,74.88
2022-12-08T10:36:13.416Z,74.94
2022-12-08T10:38:41.499Z,75.14
2022-12-08T10:41:09.470Z,75.26
2022-12-08T10:43:46.696Z,75.16
2022-12-08T10:46:20.440Z,75.16
2022-12-08T10:49:00.357Z,75.16
2022-12-08T10:51:30.147Z,75.52
2022-12-08T10:53:58.559Z,75.57
2022-12-08T10:56:31.615Z,75.56
2022-12-08T10:59:06.246Z,75.47
2022-12-08T11:01:39.188Z,75.55
2022-12-08T11:04:15.614Z,75.33
2022-12-08T11:06:44.047Z,75.27
2022-12-08T11:09:17.857Z,75.42
2022-12-08T11:11:50.082Z,75.49
2022-12-08T11:14:27.122Z,75.70
2022-12-08T11:17:03.967Z,75.88
2022-12-08T11:19:36.647Z,76.05
2022-12-08T11:22:31.179Z,76.38
2022-12-08T11:25:10.372Z,76.53
2022-12-08T11:27:47.815Z,76.58
2022-12-08T11:30:22.505Z,76.69
2022-12-08T11:33:16.708Z,76.50
2022-12-08T11:35:50.014Z,76.27
2022-12-08T11:38:24.496Z,76.24
2022-12-08T11:40:57.271Z,76.43
2022-12-08T11:43:34.461Z,76.58
2022-12-08T11:46:09.943Z,76.52
2022-12-08T11:48:45.426Z,76.41
2022-12-08T11:51:18.887Z,76.35
2022-12-08T11:53:49.837Z,76.52
2022-12-08T11:56:35.161Z,76.18
2022-12-08T11:59:15.579Z,76.15
2022-12-08T12:01:43.680Z,76.46
2022-12-08T12:04:36.799Z,76.59
2022-12-08T12:07:07.614Z,76.43
2022-12-08T12:09:44.354Z,76.53
2022-12-08T12:12:39.779Z,76.81
2022-12-08T12:15:39.879Z,76.76
2022-12-08T12:18:40.319Z,76.99
2022-12-08T12:21:11.925Z,76.99
2022-12-08T12:23:58.651Z,77.20
2022-12-08T12:26:32.333Z,77.64
2022-12-08T12:29:16.222Z,77.08
2022-12-08T12:31:50.232Z,77.25
2022-12-08T12:34:22.174Z,77.40
2022-12-08T12:37:07.692Z,77.48
2022-12-08T12:39:47.112Z,77.50
2022-12-08T12:42:51.039Z,77.53
2022-12-08T12:45:20.170Z,77.57
2022-12-08T12:47:55.585Z,77.58
2022-12-08T12:50:33.990Z,77.55
2022-12-08T12:53:18.050Z,77.59
2022-12-08T12:55:46.294Z,77.59
2022-12-08T12:58:29.739Z,77.71
2022-12-08T13:01:10.392Z,77.70
2022-12-08T13:03:45.962Z,77.77
2022-12-08T13:06:21.362Z,77.79
2022-12-08T13:08:54.486Z,77.87
2022-12-08T13:11:24.314Z,77.92
2022-12-08T13:14:05.214Z,77.91
2022-12-08T13:16:39.165Z,77.96
2022-12-08T13:19:15.126Z,78.03
2022-12-08T13:21:43.629Z,78.01
2022-12-08T13:24:14.673Z,78.05
2022-12-08T13:26:46.801Z,78.05
2022-12-08T13:29:20.672Z,78.11
2022-12-08T13:31:53.270Z,78.10
2022-12-08T13:34:35.803Z,78.70
2022-12-08T13:37:12.681Z,79.87
2022-12-08T13:39:40.670Z,77.77
2022-12-08T13:42:17.696Z,77.52
2022-12-08T13:57:05.159Z,74.98
2022-12-08T13:59:34.489Z,75.00
2022-12-08T14:02:13.177Z,75.42
2022-12-08T14:07:34.851Z,76.02
2022-12-08T14:10:04.137Z,76.84
2022-12-08T14:12:32.416Z,77.20
2022-12-08T14:15:05.165Z,77.49
2022-12-08T14:17:33.967Z,77.17
2022-12-08T14:20:23.864Z,77.57
2022-12-08T14:22:53.462Z,77.42
2022-12-08T14:25:23.321Z,77.60
2022-12-08T14:27:59.440Z,77.64
2022-12-08T14:30:36.324Z,77.98
2022-12-08T14:33:05.605Z,77.96
2022-12-08T14:35:37.335Z,78.07
2022-12-08T14:38:17.436Z,78.10
2022-12-08T14:41:09.730Z,78.31
2022-12-08T14:43:37.972Z,79.60
2022-12-08T14:46:24.300Z,78.40
2022-12-08T14:48:53.912Z,77.70
2022-12-08T14:51:21.827Z,77.72
2022-12-08T14:54:01.245Z,77.66
2022-12-08T14:56:51.908Z,77.77
2022-12-08T14:59:23.183Z,77.94
2022-12-08T15:01:54.192Z,78.26
2022-12-08T15:04:28.970Z,78.37
2022-12-08T15:07:08.192Z,78.38
2022-12-08T15:09:45.358Z,78.55
2022-12-08T15:12:13.154Z,78.63
2022-12-08T15:15:09.736Z,78.86
2022-12-08T15:17:46.228Z,78.80
2022-12-08T15:20:39.151Z,79.02
2022-12-08T15:23:19.738Z,78.97
2022-12-08T15:25:49.025Z,78.99
2022-12-08T15:28:22.987Z,79.00
2022-12-08T15:30:54.529Z,78.99
2022-12-08T15:33:22.657Z,79.01
2022-12-08T15:35:51.220Z,79.12
2022-12-08T15:38:29.073Z,79.23
2022-12-08T15:41:01.736Z,79.21
2022-12-08T15:43:31.878Z,79.26
2022-12-08T15:46:00.669Z,79.60
2022-12-08T15:48:30.362Z,79.58
2022-12-08T15:50:58.871Z,79.38
2022-12-08T15:53:26.905Z,79.24
2022-12-08T15:56:26.356Z,79.19
2022-12-08T15:58:59.372Z,79.20
2022-12-08T16:01:27.603Z,79.24
2022-12-08T16:09:44.356Z,80.37
2022-12-08T16:15:59.128Z,74.45
2022-12-08T16:18:26.996Z,67.92
2022-12-08T16:23:44.991Z,63.50
2022-12-08T16:26:31.795Z,63.29
2022-12-08T16:29:05.393Z,62.50
2022-12-08T16:31:33.900Z,62.68
2022-12-08T16:34:02.043Z,61.94
2022-12-08T16:36:29.950Z,60.94
2022-12-08T16:38:58.798Z,60.98
2022-12-08T16:41:45.402Z,61.19
2022-12-08T16:44:13.693Z,62.35
2022-12-08T16:46:42.948Z,63.58
2022-12-08T16:49:11.798Z,58.84
2022-12-08T16:51:42.458Z,56.01
2022-12-08T16:54:10.597Z,57.14
2022-12-08T16:56:38.413Z,58.83
2022-12-08T16:59:06.727Z,63.16
2022-12-08T17:01:35.806Z,67.06
2022-12-08T17:06:53.437Z,68.38
2022-12-08T17:09:21.377Z,66.50
2022-12-08T17:11:49.356Z,62.20
2022-12-08T17:14:18.113Z,56.96
2022-12-08T17:16:51.801Z,55.88
2022-12-08T17:19:20.115Z,57.05
2022-12-08T17:21:48.048Z,59.39
2022-12-08T17:24:21.775Z,61.08
2022-12-08T17:26:52.365Z,65.94
2022-12-08T17:29:20.405Z,67.76
2022-12-08T17:31:48.353Z,67.24
2022-12-08T17:34:17.332Z,64.81
2022-12-08T17:36:47.958Z,63.03
2022-12-08T17:39:18.601Z,61.88
2022-12-08T17:41:47.968Z,62.02
2022-12-08T17:44:18.339Z,61.09
2022-12-08T17:46:52.678Z,61.00
2022-12-08T17:49:24.762Z,61.25
2022-12-08T17:52:00.724Z,61.85
2022-12-08T17:54:29.370Z,61.82
2022-12-08T17:56:58.855Z,60.75
2022-12-08T17:59:29.076Z,61.00
2022-12-08T18:02:00.413Z,61.72
2022-12-08T18:04:28.917Z,61.70
2022-12-08T18:07:01.608Z,62.45
2022-12-08T18:09:32.813Z,62.51
2022-12-08T18:12:00.877Z,62.80
2022-12-08T18:14:28.978Z,62.84
2022-12-08T18:16:57.005Z,63.78
2022-12-08T18:19:26.704Z,64.87
2022-12-08T18:21:54.835Z,64.43
2022-12-08T18:24:25.277Z,64.65
2022-12-08T18:26:57.996Z,65.14
2022-12-08T18:29:25.993Z,65.37
2022-12-08T18:31:53.880Z,66.47
2022-12-08T18:34:22.026Z,66.74
2022-12-08T18:36:50.129Z,66.91
2022-12-08T18:39:22.530Z,67.17
2022-12-08T18:41:51.516Z,67.89
2022-12-08T18:44:20.000Z,68.48
2022-12-08T18:46:48.713Z,68.69
2022-12-08T18:49:21.727Z,69.59
2022-12-08T18:51:49.681Z,70.00
2022-12-08T18:54:17.840Z,69.98
2022-12-08T18:56:46.382Z,69.57
2022-12-08T18:59:15.024Z,70.02
2022-12-08T19:01:43.052Z,70.46
2022-12-08T19:04:27.797Z,70.83
2022-12-08T19:06:57.999Z,71.77
2022-12-08T19:09:27.366Z,71.32
2022-12-08T19:11:58.321Z,71.52
2022-12-08T19:14:30.582Z,71.26
2022-12-08T19:16:58.609Z,70.98
2022-12-08T19:19:28.207Z,71.53
2022-12-08T19:21:56.665Z,71.21
2022-12-08T19:24:25.478Z,71.33
2022-12-08T19:26:53.796Z,71.83
2022-12-08T19:29:24.239Z,71.80
2022-12-08T19:31:52.741Z,71.88
2022-12-08T19:34:20.947Z,72.03
2022-12-08T19:36:49.121Z,72.34
2022-12-08T19:39:38.876Z,72.36
2022-12-08T19:42:37.671Z,72.40
2022-12-08T19:45:12.781Z,72.37
2022-12-08T19:47:41.633Z,72.49
2022-12-08T19:50:31.718Z,72.46
2022-12-08T19:53:00.264Z,72.49
2022-12-08T19:55:29.347Z,72.69
2022-12-08T19:57:57.426Z,72.81
2022-12-08T20:00:26.029Z,73.35
2022-12-08T20:03:19.169Z,73.54
2022-12-08T20:05:49.878Z,73.72
2022-12-08T20:08:18.238Z,73.99
2022-12-08T20:10:47.084Z,74.11
2022-12-08T20:13:35.133Z,74.26
2022-12-08T20:16:05.063Z,74.31
2022-12-08T20:18:40.263Z,74.66
2022-12-08T20:21:09.395Z,74.78
2022-12-08T20:23:37.577Z,74.93
2022-12-08T20:26:08.393Z,74.91
2022-12-08T20:28:37.270Z,74.85
2022-12-08T20:31:08.486Z,74.93
2022-12-08T20:33:36.386Z,74.95
2022-12-08T20:36:07.933Z,75.02
2022-12-08T20:38:35.991Z,75.05
2022-12-08T20:41:09.523Z,74.91
2022-12-08T20:43:38.083Z,74.96
2022-12-08T20:46:07.756Z,74.96
2022-12-08T20:48:36.154Z,75.18
2022-12-08T20:51:05.056Z,75.28
2022-12-08T20:53:33.045Z,75.46
2022-12-08T20:56:01.131Z,75.54
2022-12-08T20:58:31.654Z,75.42
2022-12-08T21:00:59.955Z,75.94
2022-12-08T21:03:28.414Z,75.95
2022-12-08T21:05:56.807Z,76.21
2022-12-08T21:08:26.100Z,76.15
2022-12-08T21:10:56.035Z,76.19
2022-12-08T21:13:26.982Z,76.18
2022-12-08T21:15:55.777Z,76.23
2022-12-08T21:18:25.118Z,76.40
2022-12-08T21:21:01.404Z,76.77
2022-12-08T21:23:29.605Z,76.60
2022-12-08T21:25:57.671Z,76.73
2022-12-08T21:28:25.844Z,76.94
2022-12-08T21:30:54.017Z,77.10
2022-12-08T21:33:22.299Z,77.76
2022-12-08T21:35:51.056Z,77.93
2022-12-08T21:38:19.756Z,77.20
2022-12-08T21:40:47.974Z,76.85
2022-12-08T21:43:15.801Z,76.66
2022-12-08T21:45:44.241Z,76.56
2022-12-08T21:48:12.443Z,76.65
2022-12-08T21:50:43.269Z,76.81
2022-12-08T21:53:12.848Z,76.86
2022-12-08T21:55:41.426Z,77.19
2022-12-08T21:58:10.046Z,77.20
2022-12-08T22:00:39.092Z,77.17
2022-12-08T22:03:12.737Z,77.53
2022-12-08T22:05:42.131Z,77.79
2022-12-08T22:08:13.156Z,77.69
2022-12-08T22:10:41.335Z,77.87
2022-12-08T22:13:09.688Z,77.82
2022-12-08T22:15:37.949Z,77.75
2022-12-08T22:18:06.017Z,77.77
2022-12-08T22:20:36.193Z,77.84
2022-12-08T22:23:07.630Z,77.93
2022-12-08T22:25:35.785Z,77.78
2022-12-08T22:28:04.249Z,77.91
2022-12-08T22:30:38.647Z,77.92
2022-12-08T22:33:07.734Z,77.84
2022-12-08T22:35:35.848Z,78.01
2022-12-08T22:38:06.826Z,78.12
2022-12-08T22:40:35.006Z,78.08
2022-12-08T22:43:03.021Z,78.18
2022-12-08T22:45:30.891Z,78.19
2022-12-08T22:47:59.104Z,78.26
2022-12-08T22:50:27.148Z,78.21
2022-12-08T22:52:55.045Z,78.19
2022-12-08T22:55:23.076Z,78.13
2022-12-08T22:57:51.011Z,78.36
2022-12-08T23:00:19.474Z,78.42
2022-12-08T23:02:47.691Z,78.43
2022-12-08T23:05:16.338Z,78.25
2022-12-08T23:07:44.637Z,78.19
2022-12-08T23:10:12.903Z,78.33
2022-12-08T23:12:40.840Z,78.35
2022-12-08T23:15:09.202Z,78.24
2022-12-08T23:17:37.490Z,78.25
2022-12-08T23:20:06.968Z,78.11
2022-12-08T23:22:35.232Z,78.15
2022-12-08T23:25:04.979Z,78.36
2022-12-08T23:27:33.142Z,78.76
2022-12-08T23:30:06.090Z,78.83
2022-12-08T23:32:34.712Z,79.03
2022-12-08T23:35:03.516Z,79.06
2022-12-08T23:37:39.700Z,79.09
2022-12-08T23:40:08.942Z,79.10
2022-12-08T23:42:38.910Z,79.29
2022-12-08T23:45:08.891Z,79.13
2022-12-08T23:47:37.258Z,79.07
2022-12-08T23:50:08.095Z,79.26
2022-12-08T23:52:38.403Z,79.41
2022-12-08T23:55:08.931Z,79.69
2022-12-08T23:57:37.716Z,79.67
